KIJX/IJX METAR and TAF weather

Enter ICAO airport designator
Station Type Date Time Source
KIJX METAR 2019/12/10 06:15 UTC NOAA

KIJX 100615Z AUTO 28015G21KT 10SM CLR M07/M10 A3007 RMK AO2 T10661103


Station Type Date Time Source
KIJX Decoded METAR 2019/12/10 06:15 UTC NOAA

Jacksonville, Jacksonville Municipal Airport, IL, United States (KIJX) 39-46-27N 090-14-19W
Dec 10, 2019 - 01:15 AM EST / 2019.12.10 0615 UTC
Wind: from the W (280 degrees) at 17 MPH (15 KT) gusting to 24 MPH (21 KT):0
Visibility: 10 mile(s):0
Sky conditions: clear
Temperature: 20.1 F (-6.6 C)
Windchill: 5 F (-15 C):1
Dew Point: 13.5 F (-10.3 C)
Relative Humidity: 74%
Pressure (altimeter): 30.07 in. Hg (1018 hPa)
ob: KIJX 100615Z AUTO 28015G21KT 10SM CLR M07/M10 A3007 RMK AO2 T10661103
cycle: 6

Station Type Date Time Source
KIJX TAF UTC NOAA

Error!

Example: see airport list